Aneta, ND

6:24 PM CST on December 27, 2014 (GMT -0600)
Grand Forks Air Force Base | Change Station
CLOSE
Current Station
Airport
Location: Grand Forks AFB,
Elevation: 912 ft
Nearby Weather Stations
Active Advisory: Wind Chill Advisory

Elev 912 ft 47.96 °N, 97.40 °W | Updated 8 minutes ago

Overcast
Overcast
19 °F
Feels Like 19 °F
N
0
Wind Variable Wind from North

Today
High -- | Low -- °F
--% Chance of Precip.
Yesterday
High -- | Low -- °F
Precip. -- in
8:20 AM 4:45 PM
Waxing Crescent, 41% visible
Pressure 30.03 in
Visibility 6.0 miles
Clouds Scattered Clouds 500 ft
Mostly Cloudy 1400 ft
Overcast 3700 ft
Dew Point 19 °F
Humidity 100%
Rainfall 0.00 in
Snow Depth Not available.
UV 0 out of 12
Pollen .10 out of 12
Air Quality Not available.
Flu Activity Not available.
SPECI KRDR 280016Z AUTO 00000KT 6SM R17/5000FT BR SCT005 BKN014 OVC037 M07/M07 A3003 RMK AO2 CIG 010V039 BKN V SCT

More Conditions Fewer Conditions

Pressure 30.03 in
Visibility 6.0 miles
Clouds Scattered Clouds 500 ft
Mostly Cloudy 1400 ft
Overcast 3700 ft
Dew Point 19 °F
Humidity 100%
Rainfall 0.00 in
Snow Depth Not available.
UV 0 out of 12
Pollen .10 out of 12
Air Quality Not available.
Flu Activity Not available.
SPECI KRDR 280016Z AUTO 00000KT 6SM R17/5000FT BR SCT005 BKN014 OVC037 M07/M07 A3003 RMK AO2 CIG 010V039 BKN V SCT

More Conditions Fewer Conditions

10-Day Weather Forecast

Almanac

Astronomy

Dec. 27, 2014 Rise Set
Actual Time
Civil Twilight
Nautical Twilight
Astronomical Twilight
Moon
Length of Visible Light
Length of Day
Tomorrow will be .
, % of the Moon is Illuminated

Today's Extremes

State Highs State Lows

Community

WunderPhotos

Upload Photos

1,781,116 photos uploaded!

WunderBlogs® & News

Nearby

Air Quality

  Air Quality AQ Index Pollutant
Not available.

Snow Depth

Station Depth Elevation

Earthquake Activity

City Distance Mag. Time & Date
Minimum magnitude displayed is 2.5.

Coastal Water Temperatures

Place Temperature

Nearby Weather Stations